createdAt,value
2023-04-04T00:01:32.654Z,100.00
2023-04-04T00:04:38.748Z,100.00
2023-04-04T00:07:47.597Z,100.00
2023-04-04T00:11:00.717Z,100.00
2023-04-04T00:14:07.013Z,100.00
2023-04-04T00:17:13.188Z,100.00
2023-04-04T00:20:19.260Z,100.00
2023-04-04T00:23:25.330Z,100.00
2023-04-04T00:26:34.305Z,100.00
2023-04-04T00:29:40.895Z,100.00
2023-04-04T00:32:47.328Z,100.00
2023-04-04T00:35:53.691Z,100.00
2023-04-04T00:38:59.746Z,100.00
2023-04-04T00:42:08.338Z,100.00
2023-04-04T00:45:14.475Z,100.00
2023-04-04T00:48:24.561Z,100.00
2023-04-04T00:51:30.727Z,100.00
2023-04-04T00:54:37.512Z,100.00
2023-04-04T00:57:45.758Z,100.00
2023-04-04T01:00:52.269Z,100.00
2023-04-04T01:03:58.631Z,100.00
2023-04-04T01:07:05.642Z,100.00
2023-04-04T01:10:13.216Z,100.00
2023-04-04T01:13:22.160Z,100.00
2023-04-04T01:16:28.672Z,100.00
2023-04-04T01:19:38.266Z,100.00
2023-04-04T01:22:48.310Z,100.00
2023-04-04T01:26:04.119Z,100.00
2023-04-04T01:29:10.661Z,100.00
2023-04-04T01:32:21.167Z,100.00
2023-04-04T01:35:33.471Z,100.00
2023-04-04T01:38:49.153Z,100.00
2023-04-04T01:41:58.151Z,100.00
2023-04-04T01:45:07.184Z,100.00
2023-04-04T01:48:16.763Z,100.00
2023-04-04T01:51:23.963Z,100.00
2023-04-04T01:54:30.800Z,100.00
2023-04-04T01:57:38.674Z,100.00
2023-04-04T02:00:45.087Z,100.00
2023-04-04T02:03:51.219Z,100.00
2023-04-04T02:06:57.598Z,100.00
2023-04-04T02:10:03.957Z,100.00
2023-04-04T02:13:12.325Z,100.00
2023-04-04T02:16:19.832Z,100.00
2023-04-04T02:19:26.405Z,100.00
2023-04-04T02:22:32.804Z,100.00
2023-04-04T02:25:39.335Z,100.00
2023-04-04T02:28:47.624Z,100.00
2023-04-04T02:31:53.894Z,100.00
2023-04-04T02:35:00.459Z,100.00
2023-04-04T02:38:06.775Z,100.00
2023-04-04T02:41:14.512Z,100.00
2023-04-04T02:44:22.580Z,100.00
2023-04-04T02:47:28.978Z,100.00
2023-04-04T02:50:35.095Z,100.00
2023-04-04T02:53:41.604Z,100.00
2023-04-04T02:56:47.737Z,100.00
2023-04-04T02:59:55.562Z,100.00
2023-04-04T03:03:01.752Z,100.00
2023-04-04T03:06:08.193Z,100.00
2023-04-04T03:09:14.658Z,100.00
2023-04-04T03:12:22.600Z,100.00
2023-04-04T03:15:30.736Z,100.00
2023-04-04T03:18:37.340Z,100.00
2023-04-04T03:21:43.790Z,100.00
2023-04-04T03:24:50.097Z,100.00
2023-04-04T03:27:56.746Z,100.00
2023-04-04T03:31:07.130Z,100.00
2023-04-04T03:34:13.378Z,100.00
2023-04-04T03:37:19.609Z,100.00
2023-04-04T03:40:25.858Z,100.00
2023-04-04T03:43:32.745Z,100.00
2023-04-04T03:46:40.807Z,100.00
2023-04-04T03:49:47.044Z,100.00
2023-04-04T03:52:53.562Z,100.00
2023-04-04T03:56:00.987Z,100.00
2023-04-04T03:59:07.897Z,100.00
2023-04-04T04:02:15.666Z,100.00
2023-04-04T04:05:22.090Z,100.00
2023-04-04T04:08:28.719Z,100.00
2023-04-04T04:11:35.242Z,100.00
2023-04-04T04:14:41.763Z,100.00
2023-04-04T04:17:49.323Z,100.00
2023-04-04T04:20:59.428Z,100.00
2023-04-04T04:24:06.659Z,100.00
2023-04-04T04:27:13.226Z,100.00
2023-04-04T04:30:19.529Z,100.00
2023-04-04T04:33:31.106Z,100.00
2023-04-04T04:36:38.123Z,100.00
2023-04-04T04:39:44.632Z,100.00
2023-04-04T04:42:51.985Z,100.00
2023-04-04T04:45:59.834Z,100.00
2023-04-04T04:49:07.416Z,100.00
2023-04-04T04:52:15.886Z,100.00
2023-04-04T04:55:22.360Z,100.00
2023-04-04T04:58:28.854Z,100.00
2023-04-04T05:01:35.006Z,100.00
2023-04-04T05:04:45.130Z,100.00
2023-04-04T05:07:51.588Z,100.00
2023-04-04T05:10:58.292Z,100.00
2023-04-04T05:14:04.783Z,100.00
2023-04-04T05:17:11.026Z,100.00
2023-04-04T05:20:19.069Z,100.00
2023-04-04T05:23:25.662Z,100.00
2023-04-04T05:26:31.635Z,100.00
2023-04-04T05:29:37.765Z,100.00
2023-04-04T05:32:46.439Z,100.00
2023-04-04T05:35:54.424Z,100.00
2023-04-04T05:39:00.902Z,100.00
2023-04-04T05:42:07.458Z,100.00
2023-04-04T05:45:13.670Z,100.00
2023-04-04T05:48:19.970Z,100.00
2023-04-04T05:51:27.931Z,100.00
2023-04-04T05:54:34.335Z,100.00
2023-04-04T05:57:49.033Z,100.00
2023-04-04T06:00:55.104Z,100.00
2023-04-04T06:04:01.759Z,100.00
2023-04-04T06:07:09.541Z,100.00
2023-04-04T06:10:15.839Z,100.00
2023-04-04T06:13:21.973Z,100.00
2023-04-04T06:16:28.262Z,100.00
2023-04-04T06:19:34.637Z,100.00
2023-04-04T06:22:42.631Z,100.00
2023-04-04T06:25:49.588Z,100.00
2023-04-04T06:28:56.541Z,100.00
2023-04-04T06:32:03.067Z,100.00
2023-04-04T06:35:10.421Z,100.00
2023-04-04T06:38:18.412Z,100.00
2023-04-04T06:41:24.629Z,100.00
2023-04-04T06:44:31.021Z,100.00
2023-04-04T06:47:37.559Z,100.00
2023-04-04T06:50:44.048Z,100.00
2023-04-04T06:53:51.854Z,100.00
2023-04-04T06:56:58.459Z,100.00
2023-04-04T07:00:05.415Z,100.00
2023-04-04T07:03:11.919Z,100.00
2023-04-04T07:06:19.606Z,100.00
2023-04-04T07:09:29.544Z,100.00
2023-04-04T07:12:36.300Z,100.00
2023-04-04T07:15:43.962Z,100.00
2023-04-04T07:18:50.061Z,100.00
2023-04-04T07:21:56.209Z,100.00
2023-04-04T07:25:03.997Z,100.00
2023-04-04T07:28:13.362Z,100.00
2023-04-04T07:31:20.253Z,100.00
2023-04-04T07:34:27.117Z,100.00
2023-04-04T07:37:33.585Z,100.00
2023-04-04T07:40:41.735Z,100.00
2023-04-04T07:43:48.059Z,100.00
2023-04-04T07:47:06.493Z,100.00
2023-04-04T07:50:16.768Z,100.00
2023-04-04T07:53:23.733Z,100.00
2023-04-04T07:56:31.547Z,100.00
2023-04-04T07:59:38.086Z,100.00
2023-04-04T08:02:45.680Z,100.00
2023-04-04T08:05:52.324Z,100.00
2023-04-04T08:08:58.697Z,100.00
2023-04-04T08:12:06.964Z,100.00
2023-04-04T08:15:13.429Z,100.00
2023-04-04T08:18:19.701Z,100.00
2023-04-04T08:21:26.113Z,100.00
2023-04-04T08:24:32.728Z,100.00
2023-04-04T08:27:45.103Z,100.00
2023-04-04T08:30:53.986Z,100.00
2023-04-04T08:34:02.137Z,100.00
2023-04-04T08:37:08.705Z,100.00
2023-04-04T08:40:15.929Z,100.00
2023-04-04T08:43:25.975Z,100.00
2023-04-04T08:46:33.198Z,100.00
2023-04-04T08:49:42.606Z,100.00
2023-04-04T08:52:50.103Z,100.00
2023-04-04T08:55:58.167Z,100.00
2023-04-04T08:59:06.349Z,100.00
2023-04-04T09:02:19.087Z,100.00
2023-04-04T09:05:25.779Z,100.00
2023-04-04T09:08:32.534Z,100.00
2023-04-04T09:11:40.593Z,100.00
2023-04-04T09:14:52.089Z,100.00
2023-04-04T09:17:58.462Z,100.00
2023-04-04T09:21:11.318Z,100.00
2023-04-04T09:24:17.283Z,100.00
2023-04-04T09:27:23.991Z,100.00
2023-04-04T09:30:32.609Z,100.00
2023-04-04T09:33:40.551Z,100.00
2023-04-04T09:36:47.820Z,100.00
2023-04-04T09:39:54.431Z,100.00
2023-04-04T09:43:04.754Z,100.00
2023-04-04T09:46:12.492Z,100.00
2023-04-04T09:49:21.739Z,100.00
2023-04-04T09:52:28.330Z,100.00
2023-04-04T09:55:36.576Z,100.00
2023-04-04T09:59:02.626Z,100.00
2023-04-04T10:02:12.131Z,98.59
2023-04-04T10:05:19.846Z,99.69
2023-04-04T10:08:29.055Z,97.60
2023-04-04T10:11:38.722Z,90.92
2023-04-04T10:14:44.916Z,91.43
2023-04-04T10:17:55.646Z,92.56
2023-04-04T10:21:14.664Z,93.78
2023-04-04T10:24:22.371Z,88.32
2023-04-04T10:27:29.089Z,89.46
2023-04-04T10:30:55.707Z,87.99
2023-04-04T10:34:18.735Z,89.65
2023-04-04T10:37:28.567Z,88.68
2023-04-04T10:40:39.056Z,91.26
2023-04-04T10:43:48.752Z,82.47
2023-04-04T10:46:56.815Z,91.99
2023-04-04T10:50:09.240Z,87.62
2023-04-04T10:53:16.260Z,75.15
2023-04-04T10:56:23.276Z,79.38
2023-04-04T10:59:30.024Z,80.52
2023-04-04T11:02:48.017Z,76.24
2023-04-04T11:06:01.873Z,79.50
2023-04-04T11:09:08.588Z,81.50
2023-04-04T11:12:20.196Z,86.96
2023-04-04T11:15:27.740Z,82.74
2023-04-04T11:18:49.985Z,75.67
2023-04-04T11:21:59.032Z,80.68
2023-04-04T11:25:38.437Z,71.91
2023-04-04T11:28:46.652Z,74.28
2023-04-04T11:31:53.331Z,74.42
2023-04-04T11:34:59.804Z,74.64
2023-04-04T11:38:14.763Z,74.28
2023-04-04T11:41:21.535Z,74.78
2023-04-04T11:44:30.699Z,69.60
2023-04-04T11:47:37.501Z,74.85
2023-04-04T11:50:44.727Z,71.49
2023-04-04T11:53:53.823Z,70.22
2023-04-04T11:57:00.294Z,66.87
2023-04-04T12:00:09.196Z,67.11
2023-04-04T12:03:18.731Z,59.13
2023-04-04T12:06:25.574Z,59.87
2023-04-04T12:09:34.763Z,58.34
2023-04-04T12:12:41.888Z,60.52
2023-04-04T12:15:49.621Z,62.54
2023-04-04T12:18:55.903Z,75.34
2023-04-04T12:22:05.186Z,82.72
2023-04-04T12:25:13.107Z,94.18
2023-04-04T12:28:20.193Z,87.08
2023-04-04T12:31:27.304Z,82.85
2023-04-04T12:34:35.418Z,74.40
2023-04-04T12:37:41.590Z,73.79
2023-04-04T12:40:49.171Z,69.89
2023-04-04T12:44:02.827Z,76.95
2023-04-04T12:47:10.797Z,79.90
2023-04-04T12:50:24.339Z,73.03
2023-04-04T12:53:33.128Z,77.34
2023-04-04T12:56:41.910Z,79.36
2023-04-04T12:59:48.993Z,77.08
2023-04-04T13:02:56.662Z,76.58
2023-04-04T13:06:02.803Z,75.11
2023-04-04T13:09:19.046Z,75.66
2023-04-04T13:12:26.790Z,80.51
2023-04-04T13:15:54.598Z,76.02
2023-04-04T13:19:01.054Z,77.58
2023-04-04T13:22:09.973Z,79.42
2023-04-04T13:25:16.364Z,78.86
2023-04-04T13:28:23.931Z,76.07
2023-04-04T13:31:30.402Z,83.95
2023-04-04T13:34:37.268Z,80.04
2023-04-04T13:37:43.491Z,79.89
2023-04-04T13:40:49.812Z,79.64
2023-04-04T13:43:57.627Z,83.19
2023-04-04T13:47:04.070Z,87.12
2023-04-04T13:50:11.092Z,84.48
2023-04-04T13:53:17.313Z,85.77
2023-04-04T13:56:23.525Z,87.40
2023-04-04T13:59:31.936Z,86.05
2023-04-04T14:02:38.531Z,88.06
2023-04-04T14:05:45.073Z,86.80
2023-04-04T14:08:51.328Z,87.58
2023-04-04T14:11:57.440Z,91.64
2023-04-04T14:15:07.503Z,84.51
2023-04-04T14:18:13.826Z,90.60
2023-04-04T14:21:20.114Z,89.19
2023-04-04T14:24:26.495Z,87.87
2023-04-04T14:27:32.931Z,81.54
2023-04-04T14:30:40.772Z,78.84
2023-04-04T14:33:47.066Z,85.25
2023-04-04T14:36:53.526Z,89.38
2023-04-04T14:40:00.430Z,87.02
2023-04-04T14:43:07.899Z,87.20
2023-04-04T14:46:15.943Z,92.77
2023-04-04T14:49:22.250Z,92.83
2023-04-04T14:52:30.507Z,93.13
2023-04-04T14:55:36.608Z,94.04
2023-04-04T14:58:43.032Z,93.71
2023-04-04T15:01:50.757Z,94.17
2023-04-04T15:04:57.233Z,95.51
2023-04-04T15:08:03.373Z,97.08
2023-04-04T15:11:10.160Z,96.39
2023-04-04T15:14:16.117Z,94.65
2023-04-04T15:17:23.623Z,94.69
2023-04-04T15:20:29.765Z,94.45
2023-04-04T15:23:36.603Z,95.80
2023-04-04T15:26:42.938Z,94.83
2023-04-04T15:29:49.001Z,93.46
2023-04-04T15:32:57.543Z,92.02
2023-04-04T15:36:03.776Z,95.61
2023-04-04T15:39:11.266Z,95.47
2023-04-04T15:42:17.898Z,93.48
2023-04-04T15:45:24.252Z,91.88
2023-04-04T15:48:32.241Z,93.54
2023-04-04T15:51:39.685Z,92.96
2023-04-04T15:54:46.178Z,91.09
2023-04-04T15:57:52.610Z,92.64
2023-04-04T16:00:58.773Z,90.95
2023-04-04T16:04:06.475Z,92.29
2023-04-04T16:07:12.866Z,91.47
2023-04-04T16:10:19.507Z,92.80
2023-04-04T16:13:25.769Z,91.68
2023-04-04T16:16:32.164Z,91.28
2023-04-04T16:19:39.858Z,92.07
2023-04-04T16:22:46.060Z,93.14
2023-04-04T16:25:52.479Z,92.23
2023-04-04T16:28:58.817Z,92.87
2023-04-04T16:32:06.627Z,90.61
2023-04-04T16:35:14.582Z,90.99
2023-04-04T16:38:20.741Z,93.28
2023-04-04T16:41:27.702Z,93.03
2023-04-04T16:44:34.275Z,95.29
2023-04-04T16:47:40.581Z,94.79
2023-04-04T16:50:48.260Z,93.47
2023-04-04T16:53:54.924Z,94.09
2023-04-04T16:57:01.261Z,95.43
2023-04-04T17:00:10.177Z,94.43
2023-04-04T17:03:16.516Z,96.63
2023-04-04T17:06:24.454Z,98.21
2023-04-04T17:09:31.504Z,94.40
2023-04-04T17:12:37.992Z,95.20
2023-04-04T17:15:44.270Z,95.40
2023-04-04T17:18:50.463Z,94.43
2023-04-04T17:21:58.313Z,96.21
2023-04-04T17:25:04.923Z,95.55
2023-04-04T17:28:10.931Z,96.46
2023-04-04T17:31:17.731Z,99.30
2023-04-04T17:34:24.451Z,100.00
2023-04-04T17:37:32.432Z,100.00
2023-04-04T17:40:40.935Z,100.00
2023-04-04T17:43:47.549Z,100.00
2023-04-04T17:46:55.372Z,100.00
2023-04-04T17:50:01.707Z,100.00
2023-04-04T17:53:09.831Z,100.00
2023-04-04T17:56:16.105Z,100.00
2023-04-04T17:59:22.525Z,100.00
2023-04-04T18:02:28.746Z,100.00
2023-04-04T18:05:35.256Z,100.00
2023-04-04T18:08:42.839Z,100.00
2023-04-04T18:11:49.170Z,100.00
2023-04-04T18:14:55.391Z,100.00
2023-04-04T18:18:02.266Z,100.00
2023-04-04T18:21:09.002Z,100.00
2023-04-04T18:24:16.686Z,100.00
2023-04-04T18:27:23.084Z,100.00
2023-04-04T18:30:29.366Z,100.00
2023-04-04T18:33:35.732Z,100.00
2023-04-04T18:36:42.396Z,100.00
2023-04-04T18:39:50.322Z,100.00
2023-04-04T18:42:56.737Z,100.00
2023-04-04T18:46:05.183Z,100.00
2023-04-04T18:49:12.642Z,100.00
2023-04-04T18:52:18.885Z,100.00
2023-04-04T18:55:26.700Z,100.00
2023-04-04T18:58:33.890Z,100.00
2023-04-04T19:01:40.407Z,100.00
2023-04-04T19:04:48.424Z,100.00
2023-04-04T19:07:55.575Z,100.00
2023-04-04T19:11:03.400Z,100.00
2023-04-04T19:14:09.711Z,100.00
2023-04-04T19:17:18.171Z,100.00
2023-04-04T19:20:24.503Z,100.00
2023-04-04T19:23:30.975Z,100.00
2023-04-04T19:26:38.704Z,100.00
2023-04-04T19:29:45.120Z,100.00
2023-04-04T19:32:51.037Z,100.00
2023-04-04T19:36:00.513Z,100.00
2023-04-04T19:39:06.738Z,100.00
2023-04-04T19:42:14.084Z,100.00
2023-04-04T19:45:47.904Z,100.00
2023-04-04T19:48:55.900Z,100.00
2023-04-04T19:52:04.545Z,100.00
2023-04-04T19:55:11.271Z,100.00
2023-04-04T19:58:22.945Z,100.00
2023-04-04T20:01:30.132Z,100.00
2023-04-04T20:04:36.412Z,100.00
2023-04-04T20:07:42.433Z,100.00
2023-04-04T20:10:48.615Z,100.00
2023-04-04T20:13:57.643Z,100.00
2023-04-04T20:17:04.005Z,100.00
2023-04-04T20:20:13.282Z,100.00
2023-04-04T20:23:19.991Z,100.00
2023-04-04T20:26:51.416Z,100.00
2023-04-04T20:29:59.179Z,100.00
2023-04-04T20:33:25.441Z,100.00
2023-04-04T20:36:33.931Z,100.00
2023-04-04T20:39:44.031Z,100.00
2023-04-04T20:42:50.008Z,100.00
2023-04-04T20:45:57.625Z,100.00
2023-04-04T20:49:04.267Z,100.00
2023-04-04T20:52:24.705Z,100.00
2023-04-04T20:55:33.464Z,100.00
2023-04-04T20:58:40.139Z,100.00
2023-04-04T21:01:48.444Z,100.00
2023-04-04T21:04:54.656Z,100.00
2023-04-04T21:08:01.662Z,100.00
2023-04-04T21:11:08.391Z,100.00
2023-04-04T21:14:23.469Z,100.00
2023-04-04T21:17:31.217Z,100.00
2023-04-04T21:21:16.749Z,100.00
2023-04-04T21:24:23.516Z,100.00
2023-04-04T21:27:35.997Z,100.00
2023-04-04T21:30:45.248Z,100.00
2023-04-04T21:33:54.532Z,100.00
2023-04-04T21:37:02.882Z,100.00
2023-04-04T21:40:10.714Z,100.00
2023-04-04T21:43:16.802Z,100.00
2023-04-04T21:46:26.956Z,100.00
2023-04-04T21:49:34.788Z,100.00
2023-04-04T21:52:42.325Z,100.00
2023-04-04T21:55:48.932Z,100.00
2023-04-04T21:58:56.619Z,100.00
2023-04-04T22:02:02.959Z,100.00
2023-04-04T22:05:11.148Z,100.00
2023-04-04T22:08:17.881Z,100.00
2023-04-04T22:11:26.217Z,100.00
2023-04-04T22:14:32.456Z,100.00
2023-04-04T22:17:38.718Z,100.00
2023-04-04T22:20:47.978Z,100.00
2023-04-04T22:23:54.707Z,100.00
2023-04-04T22:27:03.549Z,100.00
2023-04-04T22:30:10.675Z,100.00
2023-04-04T22:33:16.737Z,100.00
2023-04-04T22:36:25.381Z,100.00
2023-04-04T22:39:33.234Z,100.00
2023-04-04T22:42:39.043Z,100.00
2023-04-04T22:45:45.104Z,100.00
2023-04-04T22:48:51.210Z,100.00
2023-04-04T22:52:00.015Z,100.00
2023-04-04T22:55:07.531Z,100.00
2023-04-04T22:58:13.574Z,100.00
2023-04-04T23:01:19.571Z,100.00
2023-04-04T23:04:26.680Z,100.00
2023-04-04T23:07:34.061Z,100.00
2023-04-04T23:10:40.581Z,100.00
2023-04-04T23:13:47.271Z,100.00
2023-04-04T23:16:56.990Z,100.00
2023-04-04T23:20:08.423Z,100.00
2023-04-04T23:23:16.217Z,100.00
2023-04-04T23:26:22.233Z,100.00
2023-04-04T23:29:28.185Z,100.00
2023-04-04T23:32:35.367Z,100.00
2023-04-04T23:35:42.157Z,100.00
2023-04-04T23:38:49.734Z,100.00
2023-04-04T23:41:56.392Z,100.00
2023-04-04T23:45:02.665Z,100.00
2023-04-04T23:48:09.202Z,100.00
2023-04-04T23:51:16.323Z,100.00
2023-04-04T23:54:24.232Z,100.00
2023-04-04T23:57:30.442Z,100.00
